Time;durP1;ratioP1;P1;durP2;ratioP2;P2;SDS_P1;SDS_P2;PMS_P1;PMS_P2;Temp;Humidity;BMP_temperature;BMP_pressure;BME280_temperature;BME280_humidity;BME280_pressure;Samples;Min_cycle;Max_cycle;Signal;HPM_P1;HPM_P2
2022/12/30 00:00:45;;;;;;;;;;;;;;;5.79;95.90;100846.72;5037746;28;19967;-73
2022/12/30 00:03:11;;;;;;;;;;;;;;;5.78;95.98;100845.88;5031377;28;19917;-73
2022/12/30 00:05:36;;;;;;;;;;;;;;;5.78;96.46;100850.34;5037885;28;19948;-73
2022/12/30 00:08:01;;;;;;;;;;;;;;;5.76;96.06;100846.91;5042640;28;19970;-73
2022/12/30 00:10:27;;;;;;;;;;;;;;;5.74;96.25;100857.66;5032067;28;19996;-73
2022/12/30 00:35:07;;;;;;;;;;;;;;;5.64;96.58;100866.19;5046835;28;20569;-73
2022/12/30 00:37:32;;;;;;;;;;;;;;;5.61;96.83;100869.91;5044848;28;19916;-73
2022/12/30 00:39:58;;;;;;;;;;;;;;;5.59;97.01;100870.00;5042554;28;19920;-73
2022/12/30 00:45:11;;;;;;;;;;;;;;;5.57;97.53;100876.34;5029157;28;20000;-73
2022/12/30 00:47:36;;;;;;;;;;;;;;;5.55;97.03;100873.75;5030933;28;20008;-73
2022/12/30 00:58:13;;;;;;;;;;;;;;;5.51;96.92;100874.00;5032780;28;19916;-73
2022/12/30 01:00:39;;;;;;;;;;;;;;;5.50;97.01;100867.78;5033045;28;20503;-73
2022/12/30 01:03:04;;;;;;;;;;;;;;;5.50;97.27;100873.13;5030662;28;19920;-73
2022/12/30 01:05:29;;;;;;;;;;;;;;;5.48;97.14;100875.00;5032056;28;20440;-73
2022/12/30 01:07:54;;;;;;;;;;;;;;;5.48;96.91;100879.50;5033011;28;19984;-73
2022/12/30 01:10:19;;;;;;;;;;;;;;;5.48;96.91;100882.16;5033023;28;20300;-73
2022/12/30 01:12:45;;;;;;;;;;;;;;;5.47;97.82;100886.59;5026256;28;19914;-73
2022/12/30 01:15:10;;;;;;;;;;;;;;;5.45;97.21;100888.50;5029515;28;19913;-73
2022/12/30 01:17:35;;;;;;;;;;;;;;;5.45;97.25;100890.28;5016320;28;20308;-73
2022/12/30 01:20:00;;;;;;;;;;;;;;;5.43;97.37;100890.34;5015716;28;19913;-73
2022/12/30 01:22:25;;;;;;;;;;;;;;;5.42;97.54;100884.19;5042555;28;19916;-73
2022/12/30 01:24:51;;;;;;;;;;;;;;;5.43;97.36;100882.38;5048888;28;20044;-73
2022/12/30 01:27:16;;;;;;;;;;;;;;;5.41;97.49;100885.13;5035574;28;19928;-73
2022/12/30 01:29:42;;;;;;;;;;;;;;;5.40;97.50;100887.84;5034904;28;20377;-73
2022/12/30 01:32:09;;;;;;;;;;;;;;;5.39;97.43;100886.16;5046076;28;20280;-73
2022/12/30 01:34:34;;;;;;;;;;;;;;;5.38;97.39;100892.41;5054324;28;19912;-73
2022/12/30 01:37:00;;;;;;;;;;;;;;;5.37;97.61;100899.56;5045249;28;19920;-73
2022/12/30 01:39:25;;;;;;;;;;;;;;;5.36;97.61;100895.16;5049515;28;19909;-73
2022/12/30 01:41:52;;;;;;;;;;;;;;;5.36;97.78;100908.50;5046147;28;19912;-73
2022/12/30 01:44:47;;;;;;;;;;;;;;;5.36;97.72;100907.59;5043678;28;19921;-73
2022/12/30 01:47:15;;;;;;;;;;;;;;;5.35;97.75;100903.22;5019339;28;19913;-73
2022/12/30 01:49:42;;;;;;;;;;;;;;;5.33;97.74;100907.75;4998906;28;20086;-73
2022/12/30 01:52:08;;;;;;;;;;;;;;;5.33;98.26;100915.75;5027475;28;19917;-73
2022/12/30 01:54:34;;;;;;;;;;;;;;;5.31;97.77;100922.97;5030671;28;19912;-73
2022/12/30 01:57:00;;;;;;;;;;;;;;;5.31;98.08;100917.66;5030005;28;19913;-73
2022/12/30 01:59:27;;;;;;;;;;;;;;;5.29;97.95;100922.22;5014187;28;20464;-73
2022/12/30 02:01:52;;;;;;;;;;;;;;;5.28;98.03;100929.31;5030763;28;20047;-73
2022/12/30 02:04:22;;;;;;;;;;;;;;;5.27;97.95;100922.28;5015353;28;19913;-73
2022/12/30 02:06:51;;;;;;;;;;;;;;;5.29;97.86;100928.38;5030052;28;19917;-73
2022/12/30 02:09:16;;;;;;;;;;;;;;;5.29;98.10;100923.06;5030625;28;19916;-73
2022/12/30 02:11:41;;;;;;;;;;;;;;;5.30;97.80;100914.13;5014822;28;20023;-73
2022/12/30 02:14:07;;;;;;;;;;;;;;;5.30;97.92;100911.47;5030217;28;19913;-73
2022/12/30 02:16:51;;;;;;;;;;;;;;;5.34;98.29;100909.50;5030113;28;19913;-73
2022/12/30 02:19:16;;;;;;;;;;;;;;;5.35;98.09;100905.91;5030300;28;19917;-73
2022/12/30 02:21:49;;;;;;;;;;;;;;;5.36;98.21;100896.94;5031631;28;19967;-73
2022/12/30 02:24:29;;;;;;;;;;;;;;;5.35;98.25;100906.75;5028169;28;20004;-73
2022/12/30 02:27:24;;;;;;;;;;;;;;;5.32;98.03;100898.91;5036277;28;19924;-73
2022/12/30 02:30:00;;;;;;;;;;;;;;;5.30;98.36;100891.94;5025950;28;20426;-73
2022/12/30 02:32:35;;;;;;;;;;;;;;;5.29;98.08;100876.91;5031070;28;19917;-73
2022/12/30 02:35:10;;;;;;;;;;;;;;;5.27;98.15;100878.75;5029826;28;20413;-73
2022/12/30 02:37:56;;;;;;;;;;;;;;;5.26;98.05;100885.91;5020263;28;19924;-73
2022/12/30 02:40:24;;;;;;;;;;;;;;;5.22;97.99;100882.53;4969411;28;20335;-73
2022/12/30 02:45:51;;;;;;;;;;;;;;;5.19;98.46;100874.69;5020175;28;19920;-73
2022/12/30 02:48:30;;;;;;;;;;;;;;;5.17;98.14;100873.03;5014550;28;20013;-73
2022/12/30 02:53:41;;;;;;;;;;;;;;;5.11;98.46;100860.91;5018997;28;20012;-73
2022/12/30 02:56:07;;;;;;;;;;;;;;;5.07;98.12;100857.50;5017294;28;20012;-73
2022/12/30 02:58:33;;;;;;;;;;;;;;;5.04;98.26;100848.84;5003466;28;19953;-73
2022/12/30 03:04:04;;;;;;;;;;;;;;;4.97;98.30;100840.28;5011834;28;19973;-73
2022/12/30 03:06:33;;;;;;;;;;;;;;;4.94;98.29;100842.25;5029955;28;20373;-73
2022/12/30 03:09:06;;;;;;;;;;;;;;;4.91;98.24;100843.25;5036503;28;19956;-73
2022/12/30 03:11:46;;;;;;;;;;;;;;;4.87;98.27;100847.00;5047995;28;19921;-73
2022/12/30 03:14:24;;;;;;;;;;;;;;;4.84;98.11;100842.69;5046240;28;19916;-73
2022/12/30 03:16:56;;;;;;;;;;;;;;;4.83;98.27;100856.06;5033482;28;19917;-73
2022/12/30 03:19:23;;;;;;;;;;;;;;;4.79;98.30;100852.72;5037105;28;19918;-73
2022/12/30 03:21:50;;;;;;;;;;;;;;;4.77;98.30;100843.91;5047112;28;19916;-73
2022/12/30 03:27:05;;;;;;;;;;;;;;;4.71;98.31;100846.88;5043966;28;19973;-73
2022/12/30 03:29:36;;;;;;;;;;;;;;;4.69;98.52;100846.09;5046808;28;19967;-73
2022/12/30 03:32:01;;;;;;;;;;;;;;;4.67;98.68;100845.31;5034167;28;19983;-73
2022/12/30 03:34:27;;;;;;;;;;;;;;;4.66;98.69;100839.13;5051429;28;19971;-73
2022/12/30 03:36:56;;;;;;;;;;;;;;;4.63;98.49;100836.63;5049383;28;19919;-73
2022/12/30 03:39:25;;;;;;;;;;;;;;;4.63;99.13;100833.09;5046535;28;19998;-73
2022/12/30 03:41:51;;;;;;;;;;;;;;;4.60;98.85;100834.13;5042282;28;19924;-73
2022/12/30 03:44:17;;;;;;;;;;;;;;;4.59;98.77;100839.50;5043531;28;19920;-73
2022/12/30 03:46:43;;;;;;;;;;;;;;;4.57;98.91;100828.06;5050570;28;19919;-73
2022/12/30 03:49:09;;;;;;;;;;;;;;;4.55;98.80;100834.34;5054445;28;19916;-73
2022/12/30 03:51:34;;;;;;;;;;;;;;;4.54;98.93;100829.94;5048932;28;19917;-73
2022/12/30 03:53:59;;;;;;;;;;;;;;;4.52;98.83;100834.50;5049728;28;20279;-73
2022/12/30 03:56:24;;;;;;;;;;;;;;;4.51;99.18;100830.09;5040981;28;19913;-73
2022/12/30 03:58:49;;;;;;;;;;;;;;;4.50;98.86;100841.66;5039066;28;19917;-73
2022/12/30 04:01:15;;;;;;;;;;;;;;;4.50;99.30;100843.47;5052351;28;20280;-73
2022/12/30 04:03:40;;;;;;;;;;;;;;;4.49;98.88;100841.75;5035837;28;19956;-73
2022/12/30 04:06:05;;;;;;;;;;;;;;;4.48;98.81;100850.66;5035632;28;19919;-73
2022/12/30 04:08:31;;;;;;;;;;;;;;;4.47;98.87;100849.81;5039482;28;20283;-73
2022/12/30 04:10:56;;;;;;;;;;;;;;;4.45;98.91;100854.34;5036652;28;20315;-73
2022/12/30 04:13:21;;;;;;;;;;;;;;;4.44;99.01;100852.63;5037438;28;20288;-73
2022/12/30 04:15:50;;;;;;;;;;;;;;;4.41;99.09;100850.09;5052826;28;19917;-73
2022/12/30 04:18:16;;;;;;;;;;;;;;;4.39;99.35;100857.28;5041719;28;20066;-73
2022/12/30 04:20:41;;;;;;;;;;;;;;;4.36;99.43;100860.97;5053094;28;19982;-73
2022/12/30 04:23:06;;;;;;;;;;;;;;;4.36;99.65;100870.72;5055199;28;19920;-73
2022/12/30 04:25:31;;;;;;;;;;;;;;;4.32;99.30;100874.47;5054847;28;19962;-73
2022/12/30 04:27:57;;;;;;;;;;;;;;;4.31;99.75;100867.44;5041135;28;20003;-73
2022/12/30 04:30:22;;;;;;;;;;;;;;;4.31;99.61;100857.66;5039850;28;19917;-73
2022/12/30 04:32:47;;;;;;;;;;;;;;;4.29;99.44;100856.00;5056244;28;19999;-73
2022/12/30 04:35:12;;;;;;;;;;;;;;;4.28;99.53;100854.28;5043932;28;19912;-73
2022/12/30 04:37:38;;;;;;;;;;;;;;;4.26;99.66;100845.50;5042343;28;19917;-73
2022/12/30 04:40:03;;;;;;;;;;;;;;;4.24;99.44;100847.38;5040090;28;19913;-73
2022/12/30 04:42:28;;;;;;;;;;;;;;;4.24;99.61;100852.69;5055909;28;20011;-73
2022/12/30 04:44:53;;;;;;;;;;;;;;;4.23;99.64;100845.63;5047297;28;19966;-73
2022/12/30 04:47:19;;;;;;;;;;;;;;;4.21;99.81;100843.06;5035326;28;19913;-73
2022/12/30 04:49:44;;;;;;;;;;;;;;;4.20;99.85;100850.19;5042764;28;19971;-73
2022/12/30 04:52:09;;;;;;;;;;;;;;;4.20;99.81;100843.97;5037257;28;19924;-73
2022/12/30 04:54:35;;;;;;;;;;;;;;;4.18;99.98;100852.03;5034863;28;19917;-73
2022/12/30 04:57:00;;;;;;;;;;;;;;;4.16;99.88;100848.59;5044833;28;20284;-73
2022/12/30 04:59:25;;;;;;;;;;;;;;;4.17;100.00;100849.44;5039190;28;19920;-73
2022/12/30 05:01:50;;;;;;;;;;;;;;;4.16;100.00;100843.28;5044629;28;19913;-73
2022/12/30 05:04:15;;;;;;;;;;;;;;;4.18;100.00;100843.19;5038260;28;19928;-73
2022/12/30 05:06:41;;;;;;;;;;;;;;;4.15;99.97;100833.56;5060392;28;19916;-73
2022/12/30 05:09:06;;;;;;;;;;;;;;;4.14;99.85;100829.19;5051155;28;19959;-73
2022/12/30 05:11:31;;;;;;;;;;;;;;;4.15;100.00;100838.03;5052146;28;19913;-73
2022/12/30 05:13:56;;;;;;;;;;;;;;;4.15;100.00;100830.06;5036397;28;19913;-73
2022/12/30 05:16:21;;;;;;;;;;;;;;;4.13;100.00;100830.13;5050717;28;19913;-73
2022/12/30 05:18:46;;;;;;;;;;;;;;;4.13;100.00;100819.47;5054330;28;19909;-73
2022/12/30 05:21:12;;;;;;;;;;;;;;;4.15;100.00;100822.06;5052567;28;19952;-73
2022/12/30 05:26:20;;;;;;;;;;;;;;;4.13;100.00;100824.81;5049004;28;20035;-73
2022/12/30 05:28:46;;;;;;;;;;;;;;;4.13;100.00;100816.81;5044170;28;19927;-73
2022/12/30 05:31:15;;;;;;;;;;;;;;;4.14;100.00;100818.56;5052949;28;19917;-73
2022/12/30 05:33:40;;;;;;;;;;;;;;;4.14;100.00;100815.00;5049369;28;19913;-73
2022/12/30 05:36:06;;;;;;;;;;;;;;;4.13;100.00;100830.13;5042765;28;19921;-73
2022/12/30 05:38:31;;;;;;;;;;;;;;;4.13;100.00;100822.13;5039975;28;19913;-73
2022/12/30 05:40:57;;;;;;;;;;;;;;;4.15;100.00;100824.72;5042014;28;19955;-73
2022/12/30 05:43:22;;;;;;;;;;;;;;;4.15;100.00;100833.56;5002001;28;1080026;-73
2022/12/30 05:45:47;;;;;;;;;;;;;;;4.15;100.00;100825.56;5046007;28;19967;-73
2022/12/30 05:48:12;;;;;;;;;;;;;;;4.16;100.00;100819.34;5035776;28;19917;-73
2022/12/30 05:50:38;;;;;;;;;;;;;;;4.16;100.00;100816.66;5033494;28;19920;-73
2022/12/30 05:53:04;;;;;;;;;;;;;;;4.16;100.00;100823.81;5046363;28;19913;-73
2022/12/30 05:55:29;;;;;;;;;;;;;;;4.14;100.00;100818.56;5038807;28;19912;-73
2022/12/30 05:57:54;;;;;;;;;;;;;;;4.14;100.00;100818.56;5046390;28;20253;-73
2022/12/30 06:00:19;;;;;;;;;;;;;;;4.15;100.00;100820.25;5035345;28;19920;-73
2022/12/30 06:02:44;;;;;;;;;;;;;;;4.17;100.00;100833.47;5039978;28;19959;-73
2022/12/30 06:05:10;;;;;;;;;;;;;;;4.15;100.00;100825.56;5044891;28;19912;-73
2022/12/30 06:07:35;;;;;;;;;;;;;;;4.15;100.00;100820.25;5041820;28;20292;-73
2022/12/30 06:10:00;;;;;;;;;;;;;;;4.17;100.00;100821.06;5049095;28;19912;-73
2022/12/30 06:12:25;;;;;;;;;;;;;;;4.18;100.00;100811.28;5047493;28;20023;-73
2022/12/30 06:14:50;;;;;;;;;;;;;;;4.19;100.00;100807.69;5045879;28;20382;-73
2022/12/30 06:17:15;;;;;;;;;;;;;;;4.20;100.00;100796.09;5051165;28;19943;-73
2022/12/30 06:19:41;;;;;;;;;;;;;;;4.23;100.00;100787.13;5050040;28;20288;-73
2022/12/30 06:22:06;;;;;;;;;;;;;;;4.24;100.00;100788.84;5051759;28;20003;-73
2022/12/30 06:24:31;;;;;;;;;;;;;;;4.24;100.00;100781.72;5041191;28;20276;-73
2022/12/30 06:26:56;;;;;;;;;;;;;;;4.27;100.00;100786.03;5042905;28;19916;-73
2022/12/30 06:29:21;;;;;;;;;;;;;;;4.27;100.00;100788.69;5039886;28;20377;-73
2022/12/30 06:31:47;;;;;;;;;;;;;;;4.30;100.00;100777.91;5041814;28;19917;-73
2022/12/30 06:34:12;;;;;;;;;;;;;;;4.26;100.00;100779.88;5035235;28;19913;-73
2022/12/30 06:36:37;;;;;;;;;;;;;;;4.27;100.00;100780.72;5035981;28;19913;-73
2022/12/30 06:39:02;;;;;;;;;;;;;;;4.29;100.00;100787.69;5044351;28;20015;-73
2022/12/30 06:41:27;;;;;;;;;;;;;;;4.31;100.00;100780.50;5048186;28;19912;-73
2022/12/30 06:43:53;;;;;;;;;;;;;;;4.31;100.00;100774.31;5046638;28;20380;-73
2022/12/30 06:46:18;;;;;;;;;;;;;;;4.32;100.00;100765.38;5045127;28;20007;-73
2022/12/30 06:48:43;;;;;;;;;;;;;;;4.32;100.00;100762.72;5039510;28;20280;-73
2022/12/30 06:51:08;;;;;;;;;;;;;;;4.33;100.00;100756.47;5051190;28;19974;-73
2022/12/30 06:53:33;;;;;;;;;;;;;;;4.32;100.00;100749.41;5048310;28;20419;-73
2022/12/30 06:55:58;;;;;;;;;;;;;;;4.32;100.00;100747.63;5038165;28;19912;-73
2022/12/30 06:58:24;;;;;;;;;;;;;;;4.34;100.00;100731.59;5047450;28;19916;-73
2022/12/30 07:00:49;;;;;;;;;;;;;;;4.35;100.00;100733.31;5036819;28;19917;-73
2022/12/30 07:03:14;;;;;;;;;;;;;;;4.35;100.00;100736.00;5038949;28;19919;-73
2022/12/30 07:05:40;;;;;;;;;;;;;;;4.35;100.00;100728.00;5045294;28;20419;-73
2022/12/30 07:08:05;;;;;;;;;;;;;;;4.36;100.00;100713.75;5042249;28;19917;-73
2022/12/30 07:10:30;;;;;;;;;;;;;;;4.38;100.00;100715.41;5052797;28;20292;-73
2022/12/30 07:12:55;;;;;;;;;;;;;;;4.37;100.00;100708.34;5034696;28;20629;-73
2022/12/30 07:15:21;;;;;;;;;;;;;;;4.38;100.00;100703.91;5031217;28;19936;-73
2022/12/30 07:17:46;;;;;;;;;;;;;;;4.41;100.00;100706.41;5048711;28;19921;-73
2022/12/30 07:20:12;;;;;;;;;;;;;;;4.41;100.00;100706.41;5045785;28;19912;-73
2022/12/30 07:22:37;;;;;;;;;;;;;;;4.41;100.00;100711.72;5047233;28;19928;-73
2022/12/30 07:25:03;;;;;;;;;;;;;;;4.43;100.00;100701.00;5040413;28;19913;-73
2022/12/30 07:27:28;;;;;;;;;;;;;;;4.44;100.00;100703.59;5045503;28;20408;-73
2022/12/30 07:29:53;;;;;;;;;;;;;;;4.46;100.00;100701.69;5039758;28;19952;-73
2022/12/30 07:32:19;;;;;;;;;;;;;;;4.47;100.00;100690.13;5040800;28;20346;-73
2022/12/30 07:34:44;;;;;;;;;;;;;;;4.50;100.00;100683.78;5040164;28;19913;-73
2022/12/30 07:37:10;;;;;;;;;;;;;;;4.50;100.00;100674.00;5038279;28;20343;-73
2022/12/30 07:39:35;;;;;;;;;;;;;;;4.55;100.00;100679.97;5044028;28;19923;-73
2022/12/30 07:42:00;;;;;;;;;;;;;;;4.57;100.00;100673.69;5049131;28;20364;-73
2022/12/30 07:44:25;;;;;;;;;;;;;;;4.59;100.00;100671.81;5049634;28;19920;-73
2022/12/30 07:46:51;;;;;;;;;;;;;;;4.62;100.00;100663.69;5053121;28;19919;-74
2022/12/30 07:49:16;;;;;;;;;;;;;;;4.64;100.00;100657.34;5050198;28;19920;-73
2022/12/30 07:51:41;;;;;;;;;;;;;;;4.68;100.00;100656.22;5046865;28;19917;-73
2022/12/30 07:54:06;;;;;;;;;;;;;;;4.71;100.00;100655.19;5040426;28;20016;-73
2022/12/30 07:56:32;;;;;;;;;;;;;;;4.71;100.00;100637.44;5033747;28;19913;-73
2022/12/30 07:58:58;;;;;;;;;;;;;;;4.76;100.00;100636.31;5034727;28;20349;-73
2022/12/30 08:01:24;;;;;;;;;;;;;;;4.79;100.00;100629.06;5046934;28;19913;-73
2022/12/30 08:03:49;;;;;;;;;;;;;;;4.83;100.00;100621.75;5044563;28;19920;-73
2022/12/30 08:06:15;;;;;;;;;;;;;;;4.87;100.00;100616.16;5045090;28;19960;-73
2022/12/30 08:08:41;;;;;;;;;;;;;;;4.90;100.00;100613.38;5039633;28;20368;-73
2022/12/30 08:11:07;;;;;;;;;;;;;;;4.94;100.00;100613.22;5051721;28;19931;-73
2022/12/30 08:13:34;;;;;;;;;;;;;;;4.99;100.00;100608.47;5048160;28;19935;-73
2022/12/30 08:16:02;;;;;;;;;;;;;;;5.01;100.00;100614.59;5040578;28;20269;-74
2022/12/30 08:18:28;;;;;;;;;;;;;;;5.03;100.00;100608.22;5052447;28;19913;-74
2022/12/30 08:20:53;;;;;;;;;;;;;;;5.07;100.00;100592.94;5048409;28;19951;-73
2022/12/30 08:23:18;;;;;;;;;;;;;;;5.10;100.00;100595.44;5052599;28;19962;-73
2022/12/30 08:25:43;;;;;;;;;;;;;;;5.12;100.00;100596.22;5044355;28;20487;-74
2022/12/30 08:28:09;;;;;;;;;;;;;;;5.16;100.00;100597.75;5046137;28;19913;-73
2022/12/30 08:30:34;;;;;;;;;;;;;;;5.18;100.00;100600.34;5034109;28;19913;-74
2022/12/30 08:32:59;;;;;;;;;;;;;;;5.22;100.00;100596.56;5043453;28;19919;-73
2022/12/30 08:35:24;;;;;;;;;;;;;;;5.23;100.00;100575.16;5053813;28;20377;-73
2022/12/30 08:37:50;;;;;;;;;;;;;;;5.27;100.00;100581.22;5049878;28;19917;-72
2022/12/30 08:40:15;;;;;;;;;;;;;;;5.31;100.00;100590.72;5039319;28;19952;-74
2022/12/30 08:42:40;;;;;;;;;;;;;;;5.35;100.00;100570.13;5046445;28;19920;-74
2022/12/30 08:45:06;;;;;;;;;;;;;;;5.39;100.00;100569.84;5043568;28;19924;-74
2022/12/30 08:47:34;;;;;;;;;;;;;;;5.42;100.00;100572.34;5040113;28;19979;-73
2022/12/30 08:49:59;;;;;;;;;;;;;;;5.45;100.00;100550.00;5043024;28;19919;-73
2022/12/30 08:52:25;;;;;;;;;;;;;;;5.49;100.00;100553.31;5043864;28;19916;-74
2022/12/30 08:54:50;;;;;;;;;;;;;;;5.53;100.00;100550.41;5053178;28;19916;-73
2022/12/30 08:57:15;;;;;;;;;;;;;;;5.56;100.00;100547.59;5054391;28;20361;-74
2022/12/30 08:59:40;;;;;;;;;;;;;;;5.60;100.00;100541.09;5050120;28;19944;-73
2022/12/30 09:02:07;;;;;;;;;;;;;;;5.65;100.00;100542.66;5049830;28;19967;-74
2022/12/30 09:04:33;;;;;;;;;;;;;;;5.70;100.00;100537.94;5052094;28;19921;-73
2022/12/30 09:06:58;;;;;;;;;;;;;;;5.72;100.00;100534.19;5051288;28;19919;-74
2022/12/30 09:09:23;;;;;;;;;;;;;;;5.74;100.00;100532.31;5051751;28;19920;-74
2022/12/30 09:11:48;;;;;;;;;;;;;;;5.77;100.00;100518.81;5054456;28;19964;-74
2022/12/30 09:14:15;;;;;;;;;;;;;;;5.83;100.00;100527.38;5048899;28;19919;-74
2022/12/30 09:16:40;;;;;;;;;;;;;;;5.85;100.00;100512.16;5051402;28;19913;-74
2022/12/30 09:19:06;;;;;;;;;;;;;;;5.87;100.00;100513.81;5049263;28;19916;-74
2022/12/30 09:21:31;;;;;;;;;;;;;;;5.90;100.00;100516.28;5052469;28;19919;-75
2022/12/30 09:23:57;;;;;;;;;;;;;;;5.93;100.00;100516.09;5055843;28;19921;-74
2022/12/30 09:26:24;;;;;;;;;;;;;;;5.98;100.00;100515.84;5052434;28;20350;-73
2022/12/30 09:28:49;;;;;;;;;;;;;;;6.00;100.00;100507.75;5051265;28;19920;-74
2022/12/30 09:31:14;;;;;;;;;;;;;;;6.04;100.00;100506.63;5050033;28;19917;-74
2022/12/30 09:33:40;;;;;;;;;;;;;;;6.07;100.00;100509.94;5043662;28;19917;-73
2022/12/30 09:36:06;;;;;;;;;;;;;;;6.12;100.00;100504.38;5050269;28;19916;-74
2022/12/30 09:38:31;;;;;;;;;;;;;;;6.16;100.00;100491.69;5053037;28;19914;-73
2022/12/30 09:41:07;;;;;;;;;;;;;;;6.19;100.00;100495.00;5050723;28;19940;-74
2022/12/30 09:43:55;;;;;;;;;;;;;;;6.23;100.00;100490.38;5052185;28;19971;-74
2022/12/30 09:46:35;;;;;;;;;;;;;;;6.27;100.00;100484.75;5052648;28;19912;-74
2022/12/30 09:49:01;;;;;;;;;;;;;;;6.30;100.00;100473.88;5050959;28;19927;-74
2022/12/30 09:51:33;;;;;;;;;;;;;;;6.34;100.00;100471.88;5053294;28;19920;-74
2022/12/30 09:54:01;;;;;;;;;;;;;;;6.38;100.00;100472.53;5054622;28;19915;-74
2022/12/30 09:56:35;;;;;;;;;;;;;;;6.42;100.00;100463.41;5054536;28;19917;-74
2022/12/30 09:59:05;;;;;;;;;;;;;;;6.44;100.00;100458.81;5048462;28;19935;-74
2022/12/30 10:01:34;;;;;;;;;;;;;;;6.48;100.00;100449.66;5053072;28;19995;-74
2022/12/30 10:03:59;;;;;;;;;;;;;;;6.52;100.00;100450.34;5048829;28;19913;-74
2022/12/30 10:06:25;;;;;;;;;;;;;;;6.55;100.00;100434.13;5047544;28;19913;-74
2022/12/30 10:09:08;;;;;;;;;;;;;;;6.59;100.00;100433.84;5052515;28;20287;-73
2022/12/30 10:11:49;;;;;;;;;;;;;;;6.62;100.00;100433.63;5053357;28;20361;-74
2022/12/30 10:14:33;;;;;;;;;;;;;;;6.67;100.00;100440.50;5050958;28;20071;-74
2022/12/30 10:17:17;;;;;;;;;;;;;;;6.71;100.00;100423.34;5058789;28;19913;-74
2022/12/30 10:19:54;;;;;;;;;;;;;;;6.73;100.00;100410.72;5050080;28;19999;-74
2022/12/30 10:22:31;;;;;;;;;;;;;;;6.76;100.00;100391.81;5042932;28;19971;-74
2022/12/30 10:25:09;;;;;;;;;;;;;;;6.77;99.54;100375.69;5051536;28;19917;-73
2022/12/30 10:27:48;;;;;;;;;;;;;;;6.81;99.67;100371.03;5060734;28;19909;-73
2022/12/30 10:30:14;;;;;;;;;;;;;;;6.83;100.00;100366.44;5068311;28;19931;-74
2022/12/30 10:32:44;;;;;;;;;;;;;;;6.86;99.89;100379.59;5046841;28;19925;-73
2022/12/30 10:35:19;;;;;;;;;;;;;;;6.86;99.36;100358.22;5051646;28;20291;-74
2022/12/30 10:37:44;;;;;;;;;;;;;;;6.89;99.46;100352.66;5051935;28;19912;-74
2022/12/30 10:40:12;;;;;;;;;;;;;;;6.92;99.39;100352.47;5046837;28;19917;-75
2022/12/30 10:42:48;;;;;;;;;;;;;;;6.95;99.62;100349.59;5049484;28;19921;-75
2022/12/30 10:45:35;;;;;;;;;;;;;;;6.98;99.33;100330.72;5049262;28;20380;-75
2022/12/30 10:48:16;;;;;;;;;;;;;;;7.02;99.27;100317.13;5049813;28;20304;-74
2022/12/30 10:50:44;;;;;;;;;;;;;;;7.05;99.13;100295.56;5045179;28;19927;-73
2022/12/30 10:53:15;;;;;;;;;;;;;;;7.07;99.37;100297.16;5047274;28;19912;-75
2022/12/30 10:55:45;;;;;;;;;;;;;;;7.10;99.43;100291.63;5046077;28;19921;-73
2022/12/30 10:58:16;;;;;;;;;;;;;;;7.11;98.91;100281.78;5049625;28;19935;-73
2022/12/30 11:00:42;;;;;;;;;;;;;;;7.14;98.36;100269.03;5052180;28;19912;-73
2022/12/30 11:03:20;;;;;;;;;;;;;;;7.16;98.65;100274.31;5059152;28;19931;-73
2022/12/30 11:05:46;;;;;;;;;;;;;;;7.19;98.30;100247.38;5046119;28;20178;-73
2022/12/30 11:08:22;;;;;;;;;;;;;;;7.20;98.22;100238.38;5045954;28;19924;-73
2022/12/30 11:10:57;;;;;;;;;;;;;;;7.23;98.13;100243.50;5050016;28;20034;-73
2022/12/30 11:16:06;;;;;;;;;;;;;;;7.30;98.08;100230.59;5051367;28;19982;-73
2022/12/30 11:18:32;;;;;;;;;;;;;;;7.31;96.71;100225.13;5046177;28;19912;-73
2022/12/30 11:20:58;;;;;;;;;;;;;;;7.33;97.22;100215.16;5048094;28;19999;-73
2022/12/30 11:23:29;;;;;;;;;;;;;;;7.37;97.64;100209.63;5042601;28;19951;-73
2022/12/30 11:25:55;;;;;;;;;;;;;;;7.39;97.41;100202.34;5046612;28;19947;-74
2022/12/30 11:28:22;;;;;;;;;;;;;;;7.40;97.49;100186.19;5049150;28;19944;-73
2022/12/30 11:30:50;;;;;;;;;;;;;;;7.41;97.23;100171.00;5048151;28;19965;-73
2022/12/30 11:33:36;;;;;;;;;;;;;;;7.43;97.02;100166.44;5049031;28;19919;-73
2022/12/30 11:36:15;;;;;;;;;;;;;;;7.43;97.46;100153.91;5045998;28;19955;-73
2022/12/30 11:38:42;;;;;;;;;;;;;;;7.44;97.21;100138.75;5040875;28;19958;-73
2022/12/30 11:41:16;;;;;;;;;;;;;;;7.46;97.18;100134.13;5045357;28;20033;-73
2022/12/30 11:43:43;;;;;;;;;;;;;;;7.48;95.95;100125.03;5048123;28;19940;-73
2022/12/30 11:46:10;;;;;;;;;;;;;;;7.52;97.26;100114.97;5043798;28;19966;-73
2022/12/30 11:48:40;;;;;;;;;;;;;;;7.52;94.70;100110.44;5043341;28;19917;-73
2022/12/30 11:51:19;;;;;;;;;;;;;;;7.59;96.50;100102.84;5047346;28;20375;-73
2022/12/30 11:53:45;;;;;;;;;;;;;;;7.63;95.97;100082.09;5041507;28;20368;-73
2022/12/30 11:56:11;;;;;;;;;;;;;;;7.65;95.71;100075.66;5043266;28;20138;-73
2022/12/30 11:58:38;;;;;;;;;;;;;;;7.67;95.70;100054.13;5040222;28;19921;-73
2022/12/30 12:01:09;;;;;;;;;;;;;;;7.69;95.34;100053.06;5041943;28;20008;-73
2022/12/30 12:03:46;;;;;;;;;;;;;;;7.73;95.13;100052.84;5039159;28;19919;-73
2022/12/30 12:06:12;;;;;;;;;;;;;;;7.76;94.96;100047.25;5047815;28;19916;-73
2022/12/30 12:08:49;;;;;;;;;;;;;;;7.79;95.28;100052.38;5056797;28;19912;-73
2022/12/30 12:11:19;;;;;;;;;;;;;;;7.82;94.96;100036.13;5074274;28;19919;-73
2022/12/30 12:14:03;;;;;;;;;;;;;;;7.85;95.25;100030.53;5061905;28;19913;-73
2022/12/30 12:16:42;;;;;;;;;;;;;;;7.87;95.32;100026.75;5039973;28;20363;-74
2022/12/30 12:19:15;;;;;;;;;;;;;;;7.91;95.35;100021.19;5045265;28;19917;-74
2022/12/30 12:21:42;;;;;;;;;;;;;;;7.94;95.82;100002.25;5048752;28;19919;-74
2022/12/30 12:24:07;;;;;;;;;;;;;;;7.94;96.66;100003.06;5039800;28;20413;-74
2022/12/30 12:26:36;;;;;;;;;;;;;;;7.92;96.71;99999.69;5047151;28;20015;-74
2022/12/30 12:29:02;;;;;;;;;;;;;;;7.91;97.25;99994.44;5052619;28;19920;-75
2022/12/30 12:31:27;;;;;;;;;;;;;;;7.91;97.76;99986.41;5053461;28;20004;-75
2022/12/30 12:34:12;;;;;;;;;;;;;;;7.88;97.92;99971.44;5045340;28;20067;-75
2022/12/30 12:36:55;;;;;;;;;;;;;;;7.85;98.71;99967.19;5045554;28;19920;-75
2022/12/30 12:39:28;;;;;;;;;;;;;;;7.85;99.16;99956.47;5050098;28;19920;-74
2022/12/30 12:41:57;;;;;;;;;;;;;;;7.83;100.00;99957.56;5054023;28;19909;-75
2022/12/30 12:44:22;;;;;;;;;;;;;;;7.81;100.00;99943.47;5051365;28;19921;-75
2022/12/30 12:46:58;;;;;;;;;;;;;;;7.81;100.00;99938.09;5053489;28;19908;-76
2022/12/30 12:49:35;;;;;;;;;;;;;;;7.80;100.00;99926.53;5052021;28;19916;-76
2022/12/30 12:52:13;;;;;;;;;;;;;;;7.80;100.00;99910.47;5047705;28;19917;-76
2022/12/30 12:54:56;;;;;;;;;;;;;;;7.79;100.00;99892.75;5050375;28;19920;-75
2022/12/30 12:57:34;;;;;;;;;;;;;;;7.78;100.00;99891.03;5048201;28;19962;-77
2022/12/30 13:00:07;;;;;;;;;;;;;;;7.76;100.00;99871.59;5050294;28;20387;-76
2022/12/30 13:02:38;;;;;;;;;;;;;;;7.78;100.00;99850.06;5052041;28;19919;-72
2022/12/30 13:05:18;;;;;;;;;;;;;;;7.74;100.00;99841.41;5056990;28;19913;-73
2022/12/30 13:07:46;;;;;;;;;;;;;;;7.74;100.00;99830.72;5052993;28;19913;-72
2022/12/30 13:10:28;;;;;;;;;;;;;;;7.70;100.00;99808.72;5053062;28;19920;-72
2022/12/30 13:12:58;;;;;;;;;;;;;;;7.71;100.00;99788.16;5058646;28;19987;-73
2022/12/30 13:15:26;;;;;;;;;;;;;;;7.70;100.00;99776.63;5046008;28;19948;-74
2022/12/30 13:17:53;;;;;;;;;;;;;;;7.72;100.00;99776.50;5049115;28;19919;-73
2022/12/30 13:20:41;;;;;;;;;;;;;;;7.74;100.00;99768.38;5048513;28;20427;-73
2022/12/30 13:23:09;;;;;;;;;;;;;;;7.76;100.00;99755.72;5049258;28;19920;-73
2022/12/30 13:25:38;;;;;;;;;;;;;;;7.78;100.00;99740.41;5047559;28;19912;-74
2022/12/30 13:28:03;;;;;;;;;;;;;;;7.77;100.00;99728.00;5045135;28;20288;-74
2022/12/30 13:30:34;;;;;;;;;;;;;;;7.73;100.00;99738.09;5045385;28;19920;-74
2022/12/30 13:33:02;;;;;;;;;;;;;;;7.72;100.00;99714.13;5049546;28;20423;-75
2022/12/30 13:35:27;;;;;;;;;;;;;;;7.69;100.00;99702.72;5051216;28;19913;-74
2022/12/30 13:38:10;;;;;;;;;;;;;;;7.70;100.00;99717.78;5044392;28;19913;-74